createdAt,value
2022-08-17T00:00:43.901Z,63.90
2022-08-17T00:03:17.383Z,64.48
2022-08-17T00:05:49.238Z,65.05
2022-08-17T00:08:18.117Z,64.54
2022-08-17T00:10:45.868Z,63.46
2022-08-17T00:13:27.567Z,63.37
2022-08-17T00:16:02.343Z,63.36
2022-08-17T00:19:01.093Z,62.89
2022-08-17T00:21:23.727Z,63.20
2022-08-17T00:23:53.193Z,63.95
2022-08-17T00:26:44.303Z,65.23
2022-08-17T00:29:08.636Z,65.47
2022-08-17T00:31:36.430Z,65.19
2022-08-17T00:34:05.353Z,64.99
2022-08-17T00:36:35.626Z,64.02
2022-08-17T00:39:03.431Z,64.37
2022-08-17T00:41:31.046Z,65.13
2022-08-17T00:44:01.840Z,66.88
2022-08-17T00:46:36.417Z,67.90
2022-08-17T00:49:05.429Z,69.02
2022-08-17T00:51:37.769Z,69.64
2022-08-17T00:54:07.544Z,69.97
2022-08-17T00:56:38.522Z,69.71
2022-08-17T00:59:09.381Z,70.01
2022-08-17T01:01:37.936Z,69.46
2022-08-17T01:04:06.309Z,68.59
2022-08-17T01:06:34.023Z,68.78
2022-08-17T01:09:04.436Z,69.90
2022-08-17T01:11:33.212Z,70.20
2022-08-17T01:14:00.402Z,69.80
2022-08-17T01:16:30.721Z,70.32
2022-08-17T01:19:05.299Z,70.29
2022-08-17T01:21:41.418Z,70.28
2022-08-17T01:24:08.857Z,70.27
2022-08-17T01:26:37.207Z,69.82
2022-08-17T01:29:06.179Z,69.53
2022-08-17T01:31:38.865Z,69.51
2022-08-17T01:34:10.722Z,69.17
2022-08-17T01:36:40.724Z,68.84
2022-08-17T01:39:16.226Z,68.67
2022-08-17T01:41:46.552Z,68.62
2022-08-17T01:44:15.857Z,68.43
2022-08-17T01:46:42.907Z,68.06
2022-08-17T01:49:11.583Z,67.25
2022-08-17T01:51:39.207Z,67.27
2022-08-17T01:54:13.473Z,67.27
2022-08-17T01:56:44.059Z,66.99
2022-08-17T01:59:16.216Z,66.00
2022-08-17T02:01:43.943Z,65.38
2022-08-17T02:04:11.902Z,64.90
2022-08-17T02:06:44.962Z,64.52
2022-08-17T02:09:16.872Z,63.96
2022-08-17T02:11:46.242Z,63.40
2022-08-17T02:14:14.104Z,62.72
2022-08-17T02:16:41.859Z,63.08
2022-08-17T02:19:13.499Z,63.77
2022-08-17T02:21:43.342Z,63.90
2022-08-17T02:24:13.060Z,64.17
2022-08-17T02:26:40.143Z,63.97
2022-08-17T02:29:07.398Z,63.89
2022-08-17T02:31:35.627Z,63.84
2022-08-17T02:34:04.663Z,63.45
2022-08-17T02:36:36.189Z,63.52
2022-08-17T02:39:05.916Z,64.05
2022-08-17T02:41:33.576Z,65.01
2022-08-17T02:44:02.450Z,65.38
2022-08-17T02:46:31.539Z,65.90
2022-08-17T02:48:59.241Z,64.83
2022-08-17T02:51:26.927Z,64.58
2022-08-17T02:54:39.169Z,65.24
2022-08-17T02:56:40.941Z,65.30
2022-08-17T02:59:08.596Z,66.05
2022-08-17T03:01:35.544Z,65.58
2022-08-17T03:04:02.799Z,65.38
2022-08-17T03:06:30.463Z,65.19
2022-08-17T03:08:57.541Z,64.25
2022-08-17T03:11:24.598Z,64.19
2022-08-17T03:13:51.570Z,64.24
2022-08-17T03:16:19.023Z,64.09
2022-08-17T03:18:46.326Z,64.04
2022-08-17T03:21:13.281Z,65.08
2022-08-17T03:23:42.202Z,66.06
2022-08-17T03:26:15.407Z,66.66
2022-08-17T03:28:42.693Z,67.49
2022-08-17T03:31:14.990Z,67.63
2022-08-17T03:33:41.913Z,67.86
2022-08-17T03:36:09.400Z,67.60
2022-08-17T03:38:39.388Z,67.20
2022-08-17T03:41:07.174Z,67.33
2022-08-17T03:43:34.723Z,67.16
2022-08-17T03:46:28.123Z,66.25
2022-08-17T03:49:23.438Z,66.01
2022-08-17T03:52:08.903Z,65.53
2022-08-17T03:54:55.268Z,64.84
2022-08-17T03:57:22.408Z,64.21
2022-08-17T03:59:49.999Z,64.09
2022-08-17T04:02:23.365Z,63.70
2022-08-17T04:04:51.200Z,62.84
2022-08-17T04:07:23.328Z,62.67
2022-08-17T04:09:50.857Z,61.83
2022-08-17T04:12:20.722Z,61.92
2022-08-17T04:14:53.656Z,61.84
2022-08-17T04:17:25.042Z,60.78
2022-08-17T04:19:53.057Z,59.06
2022-08-17T04:22:30.667Z,58.72
2022-08-17T04:25:17.683Z,58.84
2022-08-17T04:27:44.816Z,60.85
2022-08-17T04:30:12.736Z,62.10
2022-08-17T04:33:05.866Z,61.11
2022-08-17T04:35:59.116Z,60.87
2022-08-17T04:38:32.154Z,61.93
2022-08-17T04:41:20.705Z,61.25
2022-08-17T04:43:52.128Z,61.54
2022-08-17T04:46:20.935Z,61.32
2022-08-17T04:48:54.617Z,60.61
2022-08-17T04:51:26.027Z,59.99
2022-08-17T04:53:56.645Z,59.48
2022-08-17T04:56:27.102Z,59.31
2022-08-17T04:58:58.559Z,58.12
2022-08-17T05:01:28.268Z,58.46
2022-08-17T05:03:59.731Z,57.83
2022-08-17T05:06:30.275Z,58.16
2022-08-17T05:08:59.969Z,58.59
2022-08-17T05:11:28.550Z,59.08
2022-08-17T05:13:58.851Z,58.65
2022-08-17T05:16:28.741Z,59.14
2022-08-17T05:18:56.867Z,58.41
2022-08-17T05:21:23.806Z,56.78
2022-08-17T05:23:56.278Z,55.71
2022-08-17T05:26:26.655Z,55.76
2022-08-17T05:29:02.500Z,54.16
2022-08-17T05:31:30.923Z,54.28
2022-08-17T05:33:58.702Z,53.67
2022-08-17T05:36:43.386Z,53.41
2022-08-17T05:39:16.398Z,52.85
2022-08-17T05:41:47.915Z,52.38
2022-08-17T05:44:17.710Z,52.52
2022-08-17T05:46:50.230Z,51.97
2022-08-17T05:49:24.557Z,51.23
2022-08-17T05:52:19.933Z,49.79
2022-08-17T05:55:13.507Z,49.88
2022-08-17T05:57:53.784Z,50.15
2022-08-17T06:00:30.125Z,49.73
2022-08-17T06:03:38.644Z,48.79
2022-08-17T06:06:40.714Z,47.13
2022-08-17T06:09:11.471Z,46.21
2022-08-17T06:11:55.085Z,46.47
2022-08-17T06:14:55.980Z,45.95
2022-08-17T06:17:25.292Z,44.46
2022-08-17T06:20:02.827Z,44.53
2022-08-17T06:22:34.889Z,43.89
2022-08-17T06:25:12.781Z,43.43
2022-08-17T06:28:04.362Z,43.84
2022-08-17T06:30:59.995Z,42.69
2022-08-17T06:33:36.253Z,42.02
2022-08-17T06:36:35.116Z,41.84
2022-08-17T06:39:26.626Z,42.32
2022-08-17T06:42:54.673Z,42.37
2022-08-17T06:45:21.371Z,42.35
2022-08-17T06:48:14.093Z,40.95
2022-08-17T06:50:53.557Z,40.76
2022-08-17T06:53:30.016Z,40.50
2022-08-17T06:56:04.639Z,40.86
2022-08-17T06:58:33.561Z,40.32
2022-08-17T07:01:08.521Z,40.50
2022-08-17T07:03:55.428Z,40.49
2022-08-17T07:06:28.964Z,40.53
2022-08-17T07:09:06.908Z,41.03
2022-08-17T07:11:50.845Z,39.96
2022-08-17T07:14:29.945Z,40.50
2022-08-17T07:16:59.852Z,39.85
2022-08-17T07:19:31.929Z,38.96
2022-08-17T07:22:17.266Z,39.58
2022-08-17T07:24:47.488Z,38.07
2022-08-17T07:27:18.254Z,38.31
2022-08-17T07:29:54.853Z,38.06
2022-08-17T07:32:31.627Z,38.01
2022-08-17T07:35:10.671Z,39.19
2022-08-17T07:37:43.413Z,37.19
2022-08-17T07:40:27.456Z,37.60
2022-08-17T07:43:29.659Z,37.35
2022-08-17T07:46:45.574Z,36.95
2022-08-17T07:49:14.134Z,37.28
2022-08-17T07:51:52.983Z,36.43
2022-08-17T07:54:29.051Z,36.56
2022-08-17T07:57:13.086Z,37.29
2022-08-17T08:00:06.463Z,37.23
2022-08-17T08:02:44.898Z,36.83
2022-08-17T08:05:13.691Z,36.95
2022-08-17T08:08:24.625Z,36.82
2022-08-17T08:11:12.154Z,35.49
2022-08-17T08:13:46.038Z,35.89
2022-08-17T08:16:14.059Z,34.58
2022-08-17T08:18:54.498Z,34.48
2022-08-17T08:21:51.693Z,35.48
2022-08-17T08:24:40.387Z,35.90
2022-08-17T08:27:19.186Z,35.25
2022-08-17T08:29:55.784Z,34.59
2022-08-17T08:32:42.916Z,35.06
2022-08-17T08:35:51.081Z,35.04
2022-08-17T08:38:24.439Z,34.13
2022-08-17T08:41:26.779Z,34.20
2022-08-17T08:44:08.118Z,34.79
2022-08-17T08:47:04.538Z,34.16
2022-08-17T08:50:02.818Z,33.84
2022-08-17T08:53:03.669Z,34.45
2022-08-17T08:55:46.273Z,34.50
2022-08-17T08:58:31.837Z,33.74
2022-08-17T09:01:35.932Z,33.26
2022-08-17T09:04:55.886Z,33.79
2022-08-17T09:07:41.233Z,33.26
2022-08-17T09:10:25.866Z,34.56
2022-08-17T09:13:22.172Z,34.34
2022-08-17T09:15:59.325Z,33.28
2022-08-17T09:19:02.862Z,34.25
2022-08-17T09:21:48.004Z,34.00
2022-08-17T09:24:28.517Z,33.55
2022-08-17T09:27:22.343Z,33.50
2022-08-17T09:30:04.363Z,33.17
2022-08-17T09:33:06.434Z,32.68
2022-08-17T09:35:59.447Z,32.60
2022-08-17T09:39:09.131Z,32.18
2022-08-17T09:41:49.024Z,32.95
2022-08-17T09:44:51.659Z,34.55
2022-08-17T09:47:46.149Z,34.22
2022-08-17T09:51:03.771Z,33.59
2022-08-17T09:53:16.354Z,33.22
2022-08-17T09:56:03.449Z,33.43
2022-08-17T09:58:39.504Z,34.62
2022-08-17T10:01:31.953Z,33.88
2022-08-17T10:04:22.848Z,34.13
2022-08-17T10:07:06.492Z,33.84
2022-08-17T10:10:06.461Z,34.37
2022-08-17T10:12:46.459Z,33.06
2022-08-17T10:15:22.605Z,33.42
2022-08-17T10:18:23.938Z,33.29
2022-08-17T10:21:24.056Z,33.52
2022-08-17T10:24:16.499Z,32.92
2022-08-17T10:26:56.598Z,32.89
2022-08-17T10:29:50.610Z,32.89
2022-08-17T10:32:39.895Z,32.55
2022-08-17T10:35:48.794Z,32.49
2022-08-17T10:38:32.243Z,33.21
2022-08-17T10:41:27.490Z,32.28
2022-08-17T10:44:40.197Z,33.05
2022-08-17T10:47:12.913Z,32.79
2022-08-17T10:49:48.022Z,32.51
2022-08-17T10:52:31.184Z,33.39
2022-08-17T10:55:15.338Z,32.82
2022-08-17T10:57:48.212Z,33.02
2022-08-17T11:00:40.669Z,33.21
2022-08-17T11:03:21.313Z,32.55
2022-08-17T11:06:37.457Z,32.68
2022-08-17T11:09:42.142Z,32.62
2022-08-17T11:12:31.831Z,32.77
2022-08-17T11:15:14.297Z,32.61
2022-08-17T11:18:07.125Z,33.24
2022-08-17T11:21:01.336Z,32.30
2022-08-17T11:23:46.400Z,32.28
2022-08-17T11:26:31.879Z,31.78
2022-08-17T11:29:09.714Z,32.99
2022-08-17T11:31:44.430Z,32.83
2022-08-17T11:34:15.958Z,33.23
2022-08-17T11:37:33.913Z,32.86
2022-08-17T11:40:07.422Z,32.39
2022-08-17T11:42:41.400Z,31.77
2022-08-17T11:45:40.923Z,32.82
2022-08-17T11:48:33.815Z,32.41
2022-08-17T11:51:33.673Z,32.23
2022-08-17T11:54:32.845Z,32.65
2022-08-17T11:56:54.243Z,31.75
2022-08-17T11:59:32.698Z,32.40
2022-08-17T12:02:02.485Z,32.03
2022-08-17T12:04:37.162Z,31.43
2022-08-17T12:07:08.333Z,30.43
2022-08-17T12:09:43.666Z,30.43
2022-08-17T12:12:17.569Z,30.40
2022-08-17T12:15:11.790Z,30.36
2022-08-17T12:17:42.898Z,29.85
2022-08-17T12:20:24.841Z,30.69
2022-08-17T12:23:30.797Z,30.96
2022-08-17T12:26:07.589Z,30.23
2022-08-17T12:28:57.464Z,31.41
2022-08-17T12:31:34.497Z,30.18
2022-08-17T12:34:04.602Z,29.57
2022-08-17T12:36:33.526Z,30.16
2022-08-17T12:39:12.216Z,30.29
2022-08-17T12:41:50.323Z,30.28
2022-08-17T12:44:29.477Z,30.14
2022-08-17T12:46:56.817Z,30.03
2022-08-17T12:49:37.529Z,29.87
2022-08-17T12:52:11.568Z,30.71
2022-08-17T12:54:40.565Z,30.51
2022-08-17T12:57:19.985Z,30.20
2022-08-17T12:59:53.539Z,29.80
2022-08-17T13:02:39.263Z,30.03
2022-08-17T13:05:08.400Z,29.92
2022-08-17T13:07:43.771Z,28.88
2022-08-17T13:10:22.552Z,29.13
2022-08-17T13:12:51.513Z,29.77
2022-08-17T13:15:45.082Z,30.07
2022-08-17T13:18:40.596Z,30.52
2022-08-17T13:21:12.766Z,31.01
2022-08-17T13:23:39.968Z,30.79
2022-08-17T13:26:27.376Z,30.66
2022-08-17T13:28:55.415Z,30.73
2022-08-17T13:31:32.413Z,30.54
2022-08-17T13:34:33.856Z,30.24
2022-08-17T13:37:26.934Z,30.71
2022-08-17T13:39:55.351Z,30.31
2022-08-17T13:42:29.540Z,30.04
2022-08-17T13:44:58.794Z,30.46
2022-08-17T13:47:27.850Z,30.01
2022-08-17T13:49:55.874Z,30.74
2022-08-17T13:52:39.444Z,29.81
2022-08-17T13:55:19.028Z,29.67
2022-08-17T13:57:50.430Z,28.82
2022-08-17T14:00:36.580Z,28.87
2022-08-17T14:03:05.025Z,29.75
2022-08-17T14:05:33.929Z,28.70
2022-08-17T14:08:06.719Z,28.71
2022-08-17T14:10:38.901Z,28.60
2022-08-17T14:13:07.603Z,29.43
2022-08-17T14:15:56.209Z,29.19
2022-08-17T14:18:55.462Z,28.50
2022-08-17T14:21:12.761Z,29.10
2022-08-17T14:23:40.969Z,28.94
2022-08-17T14:26:14.243Z,28.80
2022-08-17T14:28:43.035Z,29.09
2022-08-17T14:31:22.885Z,28.87
2022-08-17T14:33:52.423Z,29.41
2022-08-17T14:36:19.463Z,28.74
2022-08-17T14:38:46.432Z,29.40
2022-08-17T14:41:25.344Z,28.75
2022-08-17T14:43:53.487Z,28.72
2022-08-17T14:46:20.588Z,28.98
2022-08-17T14:48:47.762Z,28.69
2022-08-17T14:51:17.550Z,28.46
2022-08-17T14:53:46.109Z,28.98
2022-08-17T14:56:14.233Z,29.26
2022-08-17T14:58:42.568Z,29.07
2022-08-17T15:01:14.160Z,28.92
2022-08-17T15:03:42.164Z,28.93
2022-08-17T15:06:14.645Z,29.03
2022-08-17T15:08:44.566Z,29.23
2022-08-17T15:11:14.741Z,29.58
2022-08-17T15:13:51.966Z,29.07
2022-08-17T15:16:20.795Z,29.24
2022-08-17T15:18:49.701Z,29.10
2022-08-17T15:21:18.833Z,29.39
2022-08-17T15:23:50.315Z,29.72
2022-08-17T15:26:20.663Z,29.19
2022-08-17T15:28:54.279Z,29.17
2022-08-17T15:31:31.715Z,29.58
2022-08-17T15:33:59.853Z,28.85
2022-08-17T15:36:26.872Z,28.77
2022-08-17T15:39:02.345Z,28.84
2022-08-17T15:41:31.316Z,29.61
2022-08-17T15:43:58.323Z,29.06
2022-08-17T15:46:33.398Z,29.25
2022-08-17T15:49:04.548Z,29.64
2022-08-17T15:51:33.860Z,29.62
2022-08-17T15:54:18.757Z,29.81
2022-08-17T15:56:53.679Z,30.13
2022-08-17T15:59:21.195Z,30.26
2022-08-17T16:03:13.484Z,30.18
2022-08-17T16:04:35.697Z,29.28
2022-08-17T16:07:07.267Z,29.71
2022-08-17T16:09:36.747Z,29.02
2022-08-17T16:12:16.777Z,29.08
2022-08-17T16:14:45.546Z,28.83
2022-08-17T16:17:39.127Z,29.34
2022-08-17T16:19:59.667Z,29.74
2022-08-17T16:22:33.745Z,29.59
2022-08-17T16:25:05.499Z,29.46
2022-08-17T16:27:32.530Z,29.50
2022-08-17T16:29:59.499Z,29.98
2022-08-17T16:32:31.706Z,29.36
2022-08-17T16:35:06.695Z,29.68
2022-08-17T16:37:34.313Z,29.41
2022-08-17T16:40:02.512Z,29.83
2022-08-17T16:42:34.075Z,30.14
2022-08-17T16:45:09.776Z,30.03
2022-08-17T16:47:37.887Z,29.89
2022-08-17T16:50:07.414Z,30.09
2022-08-17T16:52:36.130Z,30.12
2022-08-17T16:55:05.191Z,31.05
2022-08-17T16:57:33.776Z,31.05
2022-08-17T17:00:00.772Z,31.46
2022-08-17T17:02:33.283Z,30.56
2022-08-17T17:05:25.215Z,31.29
2022-08-17T17:08:04.456Z,31.06
2022-08-17T17:10:43.427Z,30.98
2022-08-17T17:13:21.196Z,31.48
2022-08-17T17:16:18.424Z,30.68
2022-08-17T17:18:53.513Z,30.52
2022-08-17T17:21:25.908Z,31.01
2022-08-17T17:23:59.999Z,31.64
2022-08-17T17:26:45.373Z,31.57
2022-08-17T17:29:48.264Z,31.63
2022-08-17T17:32:38.085Z,31.43
2022-08-17T17:35:27.774Z,32.41
2022-08-17T17:37:57.469Z,31.81
2022-08-17T17:40:45.271Z,32.48
2022-08-17T17:43:41.780Z,32.37
2022-08-17T17:46:41.077Z,32.20
2022-08-17T17:49:14.562Z,32.46
2022-08-17T17:52:11.084Z,32.80
2022-08-17T17:55:05.828Z,32.73
2022-08-17T17:58:03.621Z,33.04
2022-08-17T18:00:36.375Z,33.39
2022-08-17T18:03:24.716Z,33.52
2022-08-17T18:06:31.144Z,34.04
2022-08-17T18:09:27.569Z,33.69
2022-08-17T18:12:22.637Z,33.96
2022-08-17T18:15:21.512Z,34.54
2022-08-17T18:18:22.733Z,34.70
2022-08-17T18:20:56.274Z,35.27
2022-08-17T18:23:28.008Z,35.01
2022-08-17T18:25:57.185Z,35.46
2022-08-17T18:28:40.126Z,35.73
2022-08-17T18:31:15.103Z,35.54
2022-08-17T18:33:46.576Z,35.98
2022-08-17T18:36:25.555Z,35.92
2022-08-17T18:39:16.907Z,36.42
2022-08-17T18:41:48.365Z,35.80
2022-08-17T18:44:40.747Z,35.75
2022-08-17T18:47:15.628Z,35.47
2022-08-17T18:49:45.913Z,36.03
2022-08-17T18:52:43.128Z,36.68
2022-08-17T18:55:36.050Z,35.58
2022-08-17T18:58:20.250Z,36.04
2022-08-17T19:00:49.238Z,35.99
2022-08-17T19:03:16.928Z,36.93
2022-08-17T19:05:48.362Z,36.75
2022-08-17T19:08:25.311Z,36.54
2022-08-17T19:10:57.628Z,36.94
2022-08-17T19:13:31.686Z,37.01
2022-08-17T19:16:17.618Z,36.95
2022-08-17T19:18:58.836Z,37.63
2022-08-17T19:21:30.856Z,37.69
2022-08-17T19:24:12.113Z,37.41
2022-08-17T19:26:55.710Z,37.40
2022-08-17T19:29:48.377Z,37.34
2022-08-17T19:32:21.474Z,38.02
2022-08-17T19:34:49.221Z,38.66
2022-08-17T19:37:42.301Z,38.65
2022-08-17T19:40:52.752Z,38.54
2022-08-17T19:43:36.423Z,38.62
2022-08-17T19:46:18.245Z,38.95
2022-08-17T19:49:10.790Z,39.68
2022-08-17T19:51:52.418Z,40.66
2022-08-17T19:54:29.485Z,41.07
2022-08-17T19:57:17.157Z,40.81
2022-08-17T20:00:00.805Z,41.59
2022-08-17T20:02:41.910Z,41.93
2022-08-17T20:05:17.578Z,41.04
2022-08-17T20:07:58.227Z,41.57
2022-08-17T20:10:34.168Z,41.58
2022-08-17T20:13:08.887Z,41.22
2022-08-17T20:15:40.612Z,41.89
2022-08-17T20:18:17.495Z,41.61
2022-08-17T20:21:07.382Z,41.72
2022-08-17T20:24:04.821Z,42.08
2022-08-17T20:26:58.011Z,42.53
2022-08-17T20:29:48.727Z,42.60
2022-08-17T20:32:26.251Z,42.17
2022-08-17T20:35:16.909Z,41.33
2022-08-17T20:37:52.996Z,40.77
2022-08-17T20:40:24.482Z,40.69
2022-08-17T20:42:53.753Z,40.11
2022-08-17T20:45:20.695Z,40.00
2022-08-17T20:48:22.193Z,40.05
2022-08-17T20:50:51.529Z,39.44
2022-08-17T20:53:49.664Z,40.04
2022-08-17T20:56:44.781Z,39.72
2022-08-17T20:59:30.407Z,39.97
2022-08-17T21:02:12.407Z,40.11
2022-08-17T21:04:52.986Z,39.51
2022-08-17T21:07:29.320Z,39.64
2022-08-17T21:10:14.119Z,39.73
2022-08-17T21:12:48.121Z,40.55
2022-08-17T21:15:40.599Z,40.25
2022-08-17T21:18:29.527Z,40.54
2022-08-17T21:21:28.575Z,40.93
2022-08-17T21:24:23.694Z,40.58
2022-08-17T21:27:12.319Z,40.43
2022-08-17T21:30:11.923Z,41.39
2022-08-17T21:32:41.909Z,41.39
2022-08-17T21:35:29.345Z,41.92
2022-08-17T21:38:04.397Z,41.91
2022-08-17T21:40:33.646Z,42.00
2022-08-17T21:43:24.665Z,42.32
2022-08-17T21:45:58.778Z,42.24
2022-08-17T21:48:28.043Z,42.37
2022-08-17T21:51:14.098Z,42.69
2022-08-17T21:54:35.744Z,43.63
2022-08-17T21:57:07.267Z,43.77
2022-08-17T21:59:38.141Z,44.44
2022-08-17T22:02:09.137Z,44.68
2022-08-17T22:04:41.984Z,44.78
2022-08-17T22:07:12.085Z,44.83
2022-08-17T22:09:45.896Z,44.98
2022-08-17T22:12:17.483Z,44.83
2022-08-17T22:15:04.637Z,45.29
2022-08-17T22:17:36.677Z,45.19
2022-08-17T22:20:15.067Z,45.35
2022-08-17T22:23:08.023Z,46.13
2022-08-17T22:25:39.405Z,46.98
2022-08-17T22:28:08.835Z,46.40
2022-08-17T22:30:40.908Z,46.25
2022-08-17T22:33:32.935Z,46.84
2022-08-17T22:36:24.640Z,46.84
2022-08-17T22:38:58.664Z,47.58
2022-08-17T22:41:36.362Z,46.63
2022-08-17T22:44:36.228Z,47.70
2022-08-17T22:47:15.204Z,47.56
2022-08-17T22:49:57.734Z,47.40
2022-08-17T22:52:35.718Z,47.80
2022-08-17T22:55:33.192Z,47.17
2022-08-17T22:58:19.878Z,47.60
2022-08-17T23:00:49.512Z,47.45
2022-08-17T23:03:25.858Z,47.56
2022-08-17T23:06:11.989Z,47.78
2022-08-17T23:08:57.805Z,47.59
2022-08-17T23:11:49.547Z,47.42
2022-08-17T23:14:20.596Z,46.65
2022-08-17T23:16:51.082Z,47.17
2022-08-17T23:19:21.043Z,46.60
2022-08-17T23:21:50.504Z,46.73
2022-08-17T23:24:28.647Z,47.00
2022-08-17T23:26:59.608Z,47.08
2022-08-17T23:29:29.449Z,48.28
2022-08-17T23:32:00.121Z,47.71
2022-08-17T23:34:28.295Z,48.00
2022-08-17T23:36:56.234Z,48.19
2022-08-17T23:39:28.110Z,48.06
2022-08-17T23:41:59.061Z,48.89
2022-08-17T23:44:27.160Z,48.82
2022-08-17T23:46:55.215Z,47.78
2022-08-17T23:49:23.600Z,47.86
2022-08-17T23:51:53.680Z,48.20
2022-08-17T23:54:53.881Z,48.48
2022-08-17T23:57:33.586Z,49.27
